METAR AND TAF INFORMATION
METAR FOR KOGS
ADDS - METARS form results

(2007 UTC 25 May 2020)
Data provider http://aviationweather.gov/metar/data/
 
METAR text: KOGS 251955Z AUTO 20006KT 10SM OVC027 23/17 A3004 RMK AO2
Conditions at: KOGS (OGDENSBURG INTL , NY, US) observed 1955 UTC 25 May 2020
Temperature: 23.0°C (73°F)
Dewpoint: 17.0°C (63°F) [RH = 69%]
Pressure (altimeter): 30.04 inches Hg (1017.4 mb)
Winds: from the SSW (200 degrees) at 7 MPH (6 knots; 3.1 m/s)
Visibility: 10 or more miles (16+ km)
Ceiling: 2700 feet AGL
Clouds: overcast cloud deck at 2700 feet AGL
Weather: automated observation with no human augmentation;
there may or may not be significant weather present at this time

METAR text: KOGS 251935Z AUTO 22006G11KT 10SM OVC025 23/17 A3005 RMK AO2
Conditions at: KOGS (OGDENSBURG INTL , NY, US) observed 1935 UTC 25 May 2020
Temperature: 23.0°C (73°F)
Dewpoint: 17.0°C (63°F) [RH = 69%]
Pressure (altimeter): 30.05 inches Hg (1017.7 mb)
Winds: from the SW (220 degrees) at 7 MPH (6 knots; 3.1 m/s)
gusting to 13 MPH (11 knots; 5.7 m/s)
Visibility: 10 or more miles (16+ km)
Ceiling: 2500 feet AGL
Clouds: overcast cloud deck at 2500 feet AGL
Weather: automated observation with no human augmentation;
there may or may not be significant weather present at this time

METAR text: KOGS 251915Z AUTO 22007KT 10SM OVC024 23/17 A3005 RMK AO2
Conditions at: KOGS (OGDENSBURG INTL , NY, US) observed 1915 UTC 25 May 2020
Temperature: 23.0°C (73°F)
Dewpoint: 17.0°C (63°F) [RH = 69%]
Pressure (altimeter): 30.05 inches Hg (1017.7 mb)
Winds: from the SW (220 degrees) at 8 MPH (7 knots; 3.6 m/s)
Visibility: 10 or more miles (16+ km)
Ceiling: 2400 feet AGL
Clouds: overcast cloud deck at 2400 feet AGL
Weather: automated observation with no human augmentation;
there may or may not be significant weather present at this time

 AIRPORT MAP

 RUNWAY INFORMATION
Runway 09 Runway length 5200 ft Runway width 150 ft
Runway elevation 286 ft Runway displaced threshold 0 ft Runway heading 76
Runway 27 Runway length 5200 ft Runway width 150 ft
Runway elevation 297 ft Runway displaced threshold 0 ft Runway heading 256

 AIRPORT FREQUENCIES
Type AWOS Name AWOS 3 Frequency 118.525 MHZ
Type CNTR Name BOSTON CNT Frequency 135.25 MHZ
Type RDO Name BURLINGTON Frequency 122.4 MHZ
Type UNIC Name CTAF/UNICO Frequency 122.8 MHZ

 AIRPORT NEAR NAVIGATION AIDS



Copyright © 2020 Cape Air Virtual

CMS powered by VAM [v2.6.2]